createdAt,value
2022-10-18T00:01:08.825Z,16.72
2022-10-18T00:06:11.210Z,16.39
2022-10-18T00:08:39.936Z,16.25
2022-10-18T00:11:08.177Z,16.73
2022-10-18T00:13:37.077Z,19.33
2022-10-18T00:16:10.154Z,20.34
2022-10-18T00:18:38.120Z,19.38
2022-10-18T00:21:09.959Z,18.53
2022-10-18T00:23:38.051Z,17.91
2022-10-18T00:26:11.857Z,17.52
2022-10-18T00:28:41.089Z,17.21
2022-10-18T00:31:27.456Z,16.94
2022-10-18T00:33:58.292Z,16.68
2022-10-18T00:36:29.003Z,16.47
2022-10-18T00:38:57.899Z,16.28
2022-10-18T00:41:31.006Z,16.10
2022-10-18T00:44:26.728Z,16.60
2022-10-18T00:47:08.724Z,19.48
2022-10-18T00:49:42.734Z,19.77
2022-10-18T00:52:35.791Z,18.72
2022-10-18T00:55:06.498Z,17.79
2022-10-18T00:57:35.501Z,17.29
2022-10-18T01:00:09.865Z,16.94
2022-10-18T01:02:40.366Z,16.66
2022-10-18T01:05:10.916Z,16.42
2022-10-18T01:08:28.425Z,16.22
2022-10-18T01:11:05.303Z,15.98
2022-10-18T01:13:52.116Z,15.82
2022-10-18T01:16:32.781Z,16.51
2022-10-18T01:19:16.109Z,19.24
2022-10-18T01:21:54.528Z,19.69
2022-10-18T01:25:00.793Z,18.64
2022-10-18T01:28:13.610Z,17.68
2022-10-18T01:30:50.592Z,17.10
2022-10-18T01:33:43.960Z,16.77
2022-10-18T01:36:15.101Z,16.47
2022-10-18T01:38:45.081Z,16.22
2022-10-18T01:41:16.172Z,16.01
2022-10-18T01:43:46.994Z,15.83
2022-10-18T01:46:20.387Z,15.67
2022-10-18T01:48:49.380Z,16.19
2022-10-18T01:51:29.023Z,18.72
2022-10-18T01:53:57.301Z,19.67
2022-10-18T01:56:28.770Z,18.70
2022-10-18T01:59:34.709Z,17.80
2022-10-18T02:02:08.720Z,17.12
2022-10-18T02:04:51.846Z,16.74
2022-10-18T02:07:34.560Z,16.43
2022-10-18T02:12:51.695Z,15.94
2022-10-18T02:15:38.301Z,15.75
2022-10-18T02:18:12.515Z,15.57
2022-10-18T02:20:40.487Z,16.02
2022-10-18T02:23:10.911Z,18.51
2022-10-18T02:25:39.393Z,19.69
2022-10-18T02:28:07.685Z,18.80
2022-10-18T02:30:44.853Z,17.84
2022-10-18T02:33:31.667Z,17.18
2022-10-18T02:36:24.107Z,16.71
2022-10-18T02:38:56.376Z,16.36
2022-10-18T02:41:27.007Z,16.11
2022-10-18T02:43:55.079Z,15.90
2022-10-18T02:46:23.826Z,15.72
2022-10-18T02:48:52.041Z,15.54
2022-10-18T02:51:20.112Z,15.40
2022-10-18T02:53:48.082Z,15.89
2022-10-18T02:56:16.869Z,18.39
2022-10-18T02:58:44.941Z,19.50
2022-10-18T03:01:13.074Z,18.60
2022-10-18T03:03:41.186Z,17.68
2022-10-18T03:06:09.461Z,17.09
2022-10-18T03:08:38.045Z,16.67
2022-10-18T03:11:06.427Z,16.35
2022-10-18T03:13:34.626Z,16.08
2022-10-18T03:16:02.876Z,15.87
2022-10-18T03:18:31.048Z,15.67
2022-10-18T03:21:03.830Z,15.49
2022-10-18T03:23:31.901Z,15.31
2022-10-18T03:25:59.975Z,15.76
2022-10-18T03:28:28.136Z,18.24
2022-10-18T03:31:04.603Z,19.39
2022-10-18T03:33:33.400Z,18.44
2022-10-18T03:36:01.476Z,17.53
2022-10-18T03:38:29.443Z,16.94
2022-10-18T03:40:57.515Z,16.52
2022-10-18T03:43:25.483Z,16.22
2022-10-18T03:45:53.554Z,15.96
2022-10-18T03:48:21.525Z,15.72
2022-10-18T03:50:49.492Z,15.52
2022-10-18T03:53:17.568Z,15.35
2022-10-18T03:55:45.532Z,15.18
2022-10-18T03:58:13.605Z,15.63
2022-10-18T04:00:41.676Z,18.10
2022-10-18T04:03:10.259Z,19.16
2022-10-18T04:05:38.331Z,18.22
2022-10-18T04:08:06.402Z,17.32
2022-10-18T04:10:34.371Z,16.71
2022-10-18T04:13:02.341Z,16.27
2022-10-18T04:15:30.412Z,15.91
2022-10-18T04:17:58.674Z,15.60
2022-10-18T04:20:27.528Z,15.34
2022-10-18T04:22:57.697Z,15.12
2022-10-18T04:25:26.076Z,15.49
2022-10-18T04:27:54.045Z,17.88
2022-10-18T04:30:22.014Z,18.98
2022-10-18T04:32:49.982Z,18.03
2022-10-18T04:35:18.159Z,17.10
2022-10-18T04:37:46.126Z,16.44
2022-10-18T04:40:14.094Z,15.97
2022-10-18T04:42:42.063Z,15.62
2022-10-18T04:45:11.239Z,15.34
2022-10-18T04:47:39.436Z,15.10
2022-10-18T04:50:08.127Z,14.89
2022-10-18T04:52:36.162Z,15.30
2022-10-18T04:55:04.820Z,17.77
2022-10-18T04:57:33.046Z,18.94
2022-10-18T05:00:01.347Z,17.98
2022-10-18T05:02:29.712Z,17.04
2022-10-18T05:04:57.984Z,16.40
2022-10-18T05:07:26.157Z,15.94
2022-10-18T05:09:54.227Z,15.56
2022-10-18T05:12:22.606Z,15.25
2022-10-18T05:14:50.677Z,14.99
2022-10-18T05:17:18.670Z,14.77
2022-10-18T05:19:46.671Z,15.16
2022-10-18T05:22:15.000Z,17.63
2022-10-18T05:24:42.963Z,18.97
2022-10-18T05:27:11.342Z,18.07
2022-10-18T05:29:39.312Z,17.05
2022-10-18T05:32:07.279Z,16.35
2022-10-18T05:34:35.454Z,15.87
2022-10-18T05:37:03.525Z,15.53
2022-10-18T05:39:31.598Z,15.27
2022-10-18T05:42:00.282Z,15.05
2022-10-18T05:44:28.363Z,15.39
2022-10-18T05:46:56.424Z,17.78
2022-10-18T05:49:24.598Z,19.15
2022-10-18T05:51:52.773Z,18.27
2022-10-18T05:54:21.253Z,17.28
2022-10-18T05:56:49.222Z,16.62
2022-10-18T05:59:17.200Z,16.17
2022-10-18T06:01:45.776Z,15.84
2022-10-18T06:04:13.743Z,15.57
2022-10-18T06:06:41.818Z,15.35
2022-10-18T06:09:10.195Z,15.15
2022-10-18T06:11:38.274Z,15.54
2022-10-18T06:14:07.976Z,18.05
2022-10-18T06:19:05.346Z,18.47
2022-10-18T06:21:33.417Z,17.50
2022-10-18T06:24:01.489Z,16.87
2022-10-18T06:26:29.663Z,16.43
2022-10-18T06:28:57.796Z,16.12
2022-10-18T06:31:26.113Z,15.85
2022-10-18T06:33:57.098Z,15.63
2022-10-18T06:36:25.534Z,15.43
2022-10-18T06:38:54.659Z,15.25
2022-10-18T06:41:23.314Z,15.73
2022-10-18T06:43:53.715Z,18.23
2022-10-18T06:46:21.810Z,19.53
2022-10-18T06:48:49.885Z,18.63
2022-10-18T06:51:18.569Z,17.64
2022-10-18T06:53:59.104Z,17.00
2022-10-18T06:56:27.818Z,16.56
2022-10-18T06:58:55.806Z,16.26
2022-10-18T07:01:23.915Z,16.05
2022-10-18T07:03:53.643Z,15.86
2022-10-18T07:06:23.585Z,15.69
2022-10-18T07:08:55.446Z,16.12
2022-10-18T07:11:26.355Z,18.67
2022-10-18T07:14:01.008Z,19.99
2022-10-18T07:16:29.539Z,19.13
2022-10-18T07:18:57.663Z,18.24
2022-10-18T07:21:26.863Z,17.64
2022-10-18T07:23:56.775Z,17.24
2022-10-18T07:26:30.791Z,16.95
2022-10-18T07:29:02.531Z,16.71
2022-10-18T07:31:30.616Z,16.54
2022-10-18T07:33:58.789Z,16.39
2022-10-18T07:36:27.224Z,16.29
2022-10-18T07:38:55.241Z,16.17
2022-10-18T07:41:23.516Z,16.65
2022-10-18T07:43:53.125Z,19.14
2022-10-18T07:46:22.526Z,20.59
2022-10-18T07:48:51.550Z,19.80
2022-10-18T07:51:22.559Z,18.86
2022-10-18T07:53:50.735Z,18.19
2022-10-18T07:56:21.951Z,17.76
2022-10-18T07:58:52.819Z,17.47
2022-10-18T08:01:22.664Z,17.24
2022-10-18T08:03:51.594Z,17.05
2022-10-18T08:06:21.292Z,16.89
2022-10-18T08:08:49.714Z,16.77
2022-10-18T08:11:21.568Z,16.68
2022-10-18T08:13:49.846Z,17.22
2022-10-18T08:16:35.738Z,19.73
2022-10-18T08:19:04.523Z,20.76
2022-10-18T08:21:32.705Z,19.91
2022-10-18T08:24:00.671Z,19.15
2022-10-18T08:26:28.634Z,18.65
2022-10-18T08:29:17.746Z,18.31
2022-10-18T08:31:44.744Z,18.05
2022-10-18T08:34:18.715Z,17.90
2022-10-18T08:36:47.851Z,17.80
2022-10-18T08:39:15.819Z,17.71
2022-10-18T08:41:54.336Z,17.64
2022-10-18T08:44:30.606Z,17.58
2022-10-18T08:47:11.679Z,17.53
2022-10-18T08:49:51.039Z,17.52
2022-10-18T08:52:45.244Z,17.51
2022-10-18T08:55:27.806Z,17.52
2022-10-18T08:57:58.290Z,17.54
2022-10-18T09:00:34.703Z,17.56
2022-10-18T09:03:40.928Z,17.60
2022-10-18T09:06:25.526Z,17.66
2022-10-18T09:09:08.931Z,17.72
2022-10-18T09:12:32.895Z,17.78
2022-10-18T09:15:20.569Z,17.87
2022-10-18T09:17:54.480Z,17.96
2022-10-18T09:20:46.613Z,18.04
2022-10-18T09:23:23.872Z,18.13
2022-10-18T09:26:00.857Z,18.24
2022-10-18T09:28:58.261Z,18.33
2022-10-18T09:31:32.558Z,18.44
2022-10-18T09:34:08.616Z,18.51
2022-10-18T09:36:39.113Z,18.58
2022-10-18T09:39:12.543Z,18.65
2022-10-18T09:41:49.827Z,18.70
2022-10-18T09:44:25.682Z,18.76
2022-10-18T09:47:02.768Z,18.79
2022-10-18T09:49:40.564Z,18.83
2022-10-18T09:52:33.899Z,18.87
2022-10-18T09:55:13.673Z,18.91
2022-10-18T09:57:46.968Z,18.97
2022-10-18T10:00:48.833Z,19.04
2022-10-18T10:03:17.107Z,19.12
2022-10-18T10:05:45.920Z,19.20
2022-10-18T10:08:13.967Z,19.28
2022-10-18T10:10:47.574Z,19.34
2022-10-18T10:13:24.547Z,19.41
2022-10-18T10:16:00.400Z,19.47
2022-10-18T10:18:34.514Z,19.54
2022-10-18T10:21:15.184Z,19.62
2022-10-18T10:23:54.106Z,19.69
2022-10-18T10:26:23.920Z,19.78
2022-10-18T10:28:52.468Z,19.84
2022-10-18T10:31:32.139Z,19.91
2022-10-18T10:34:03.189Z,19.98
2022-10-18T10:36:32.789Z,20.04
2022-10-18T10:39:12.420Z,20.10
2022-10-18T10:41:41.523Z,20.16
2022-10-18T10:44:34.588Z,20.21
2022-10-18T10:47:03.169Z,20.26
2022-10-18T10:49:46.193Z,20.30
2022-10-18T10:52:27.243Z,20.35
2022-10-18T10:55:23.595Z,20.41
2022-10-18T10:57:56.419Z,20.46
2022-10-18T11:00:39.922Z,20.50
2022-10-18T11:03:28.396Z,20.54
2022-10-18T11:06:01.086Z,20.58
2022-10-18T11:08:31.221Z,20.60
2022-10-18T11:11:16.918Z,20.62
2022-10-18T11:13:57.057Z,20.64
2022-10-18T11:17:22.321Z,20.65
2022-10-18T11:19:56.228Z,20.66
2022-10-18T11:22:29.143Z,20.65
2022-10-18T11:24:57.491Z,20.64
2022-10-18T11:27:38.157Z,20.63
2022-10-18T11:30:21.284Z,20.61
2022-10-18T11:33:10.346Z,20.60
2022-10-18T11:36:03.928Z,20.58
2022-10-18T11:38:47.346Z,20.56
2022-10-18T11:41:27.296Z,20.54
2022-10-18T11:44:03.669Z,20.53
2022-10-18T11:46:57.026Z,20.52
2022-10-18T11:49:45.168Z,20.52
2022-10-18T11:52:33.207Z,20.51
2022-10-18T11:55:16.230Z,20.50
2022-10-18T11:57:57.036Z,20.50
2022-10-18T12:00:39.508Z,20.50
2022-10-18T12:03:36.252Z,20.49
2022-10-18T12:06:12.486Z,20.48
2022-10-18T12:08:46.631Z,20.48
2022-10-18T12:11:30.980Z,20.48
2022-10-18T12:14:21.683Z,20.48
2022-10-18T12:16:53.606Z,20.48
2022-10-18T12:19:30.114Z,20.48
2022-10-18T12:22:11.191Z,20.49
2022-10-18T12:24:39.895Z,20.50
2022-10-18T12:27:13.580Z,20.50
2022-10-18T12:29:53.837Z,20.50
2022-10-18T12:32:27.745Z,20.50
2022-10-18T12:35:04.929Z,20.50
2022-10-18T12:37:57.996Z,20.49
2022-10-18T12:40:32.714Z,20.48
2022-10-18T12:43:09.471Z,20.48
2022-10-18T12:45:51.083Z,20.48
2022-10-18T12:48:42.661Z,20.48
2022-10-18T12:51:17.838Z,20.48
2022-10-18T12:53:52.875Z,20.47
2022-10-18T12:56:29.862Z,20.48
2022-10-18T12:59:16.166Z,20.48
2022-10-18T13:01:53.415Z,20.48
2022-10-18T13:04:27.568Z,20.51
2022-10-18T13:07:03.127Z,20.53
2022-10-18T13:09:39.260Z,20.54
2022-10-18T13:12:10.204Z,20.54
2022-10-18T13:15:25.594Z,20.54
2022-10-18T13:18:19.764Z,20.54
2022-10-18T13:21:03.297Z,20.55
2022-10-18T13:23:43.251Z,20.55
2022-10-18T13:26:32.208Z,20.55
2022-10-18T13:29:09.374Z,20.54
2022-10-18T13:31:37.771Z,20.53
2022-10-18T13:34:28.252Z,20.53
2022-10-18T13:37:06.683Z,20.53
2022-10-18T13:39:35.292Z,20.53
2022-10-18T13:42:03.234Z,20.52
2022-10-18T13:44:40.369Z,20.51
2022-10-18T13:47:32.740Z,20.52
2022-10-18T13:50:03.633Z,20.52
2022-10-18T13:52:44.160Z,20.52
2022-10-18T13:55:36.296Z,20.52
2022-10-18T13:59:05.871Z,20.52
2022-10-18T14:01:54.004Z,20.50
2022-10-18T14:05:16.583Z,20.50
2022-10-18T14:07:51.396Z,20.49
2022-10-18T14:11:03.274Z,20.49
2022-10-18T14:13:43.792Z,20.48
2022-10-18T14:16:50.365Z,20.48
2022-10-18T14:19:39.610Z,20.48
2022-10-18T14:22:11.903Z,20.49
2022-10-18T14:24:45.818Z,20.50
2022-10-18T14:27:34.601Z,20.50
2022-10-18T14:30:11.241Z,20.49
2022-10-18T14:32:48.117Z,20.46
2022-10-18T14:35:38.388Z,20.42
2022-10-18T14:38:13.965Z,20.37
2022-10-18T14:40:42.028Z,20.32
2022-10-18T14:43:14.095Z,20.28
2022-10-18T14:45:43.189Z,20.24
2022-10-18T14:48:22.083Z,20.20
2022-10-18T14:50:59.504Z,20.16
2022-10-18T14:53:39.454Z,20.12
2022-10-18T14:56:08.378Z,20.08
2022-10-18T14:58:38.262Z,20.04
2022-10-18T15:01:06.811Z,20.00
2022-10-18T15:03:36.141Z,19.95
2022-10-18T15:06:06.020Z,19.90
2022-10-18T15:08:40.581Z,19.84
2022-10-18T15:11:13.353Z,19.79
2022-10-18T15:13:53.722Z,19.72
2022-10-18T15:16:26.271Z,19.66
2022-10-18T15:19:07.990Z,19.59
2022-10-18T15:21:36.472Z,19.52
2022-10-18T15:24:26.454Z,19.46
2022-10-18T15:26:56.779Z,19.39
2022-10-18T15:29:25.142Z,19.33
2022-10-18T15:31:53.127Z,19.27
2022-10-18T15:34:27.937Z,19.21
2022-10-18T15:36:57.031Z,19.14
2022-10-18T15:39:27.989Z,19.08
2022-10-18T15:41:58.626Z,19.03
2022-10-18T15:44:34.890Z,18.97
2022-10-18T15:47:12.172Z,18.91
2022-10-18T15:49:46.694Z,18.86
2022-10-18T15:52:38.165Z,18.81
2022-10-18T15:55:45.412Z,18.75
2022-10-18T15:58:46.118Z,18.67
2022-10-18T16:01:23.467Z,18.61
2022-10-18T16:03:52.117Z,18.54
2022-10-18T16:06:20.290Z,18.49
2022-10-18T16:08:51.433Z,18.43
2022-10-18T16:11:25.036Z,18.36
2022-10-18T16:13:56.529Z,18.29
2022-10-18T16:16:29.470Z,18.20
2022-10-18T16:18:58.053Z,18.13
2022-10-18T16:21:32.066Z,18.07
2022-10-18T16:24:00.240Z,18.01
2022-10-18T16:26:29.418Z,17.96
2022-10-18T16:28:58.895Z,17.91
2022-10-18T16:31:29.982Z,17.86
2022-10-18T16:33:59.384Z,18.34
2022-10-18T16:36:30.238Z,20.83
2022-10-18T16:39:01.056Z,22.20
2022-10-18T16:41:29.249Z,21.42
2022-10-18T16:43:57.235Z,20.57
2022-10-18T16:46:31.825Z,20.01
2022-10-18T16:49:00.870Z,19.63
2022-10-18T16:51:29.295Z,19.36
2022-10-18T16:53:57.473Z,19.14
2022-10-18T16:56:31.689Z,18.95
2022-10-18T16:59:00.475Z,18.77
2022-10-18T17:01:28.508Z,18.62
2022-10-18T17:03:56.619Z,18.49
2022-10-18T17:06:28.073Z,18.35
2022-10-18T17:08:57.659Z,18.21
2022-10-18T17:11:28.514Z,18.08
2022-10-18T17:13:56.592Z,17.97
2022-10-18T17:16:30.403Z,17.88
2022-10-18T17:19:02.255Z,17.79
2022-10-18T17:21:31.612Z,17.71
2022-10-18T17:24:02.388Z,17.62
2022-10-18T17:26:30.829Z,17.53
2022-10-18T17:29:05.022Z,18.01
2022-10-18T17:31:33.470Z,20.55
2022-10-18T17:34:02.430Z,21.66
2022-10-18T17:36:32.580Z,20.81
2022-10-18T17:39:00.953Z,19.95
2022-10-18T17:41:29.429Z,19.39
2022-10-18T17:43:57.506Z,19.02
2022-10-18T17:46:25.781Z,18.74
2022-10-18T17:48:54.160Z,18.53
2022-10-18T17:51:22.643Z,18.35
2022-10-18T17:53:50.610Z,18.20
2022-10-18T17:56:18.784Z,18.08
2022-10-18T17:58:51.157Z,17.99
2022-10-18T18:01:22.219Z,17.91
2022-10-18T18:03:55.901Z,17.86
2022-10-18T18:06:33.991Z,17.81
2022-10-18T18:09:08.502Z,17.77
2022-10-18T18:11:38.446Z,17.74
2022-10-18T18:14:10.105Z,17.72
2022-10-18T18:16:38.858Z,17.71
2022-10-18T18:19:09.647Z,17.69
2022-10-18T18:21:39.434Z,17.69
2022-10-18T18:24:08.305Z,17.70
2022-10-18T18:26:37.318Z,17.69
2022-10-18T18:29:05.350Z,17.70
2022-10-18T18:31:39.936Z,17.70
2022-10-18T18:34:09.710Z,17.70
2022-10-18T18:36:38.718Z,17.72
2022-10-18T18:39:09.067Z,17.73
2022-10-18T18:41:38.594Z,17.75
2022-10-18T18:44:06.722Z,17.76
2022-10-18T18:46:39.706Z,17.78
2022-10-18T18:49:08.539Z,17.78
2022-10-18T18:51:40.764Z,17.79
2022-10-18T18:54:11.194Z,17.79
2022-10-18T18:56:39.262Z,17.78
2022-10-18T18:59:07.741Z,17.77
2022-10-18T19:01:37.823Z,17.76
2022-10-18T19:04:08.084Z,17.75
2022-10-18T19:06:38.920Z,17.73
2022-10-18T19:09:18.871Z,17.71
2022-10-18T19:11:48.067Z,17.70
2022-10-18T19:14:16.504Z,17.69
2022-10-18T19:16:50.037Z,17.68
2022-10-18T19:19:21.396Z,17.68
2022-10-18T19:21:52.437Z,17.67
2022-10-18T19:24:22.047Z,17.67
2022-10-18T19:26:53.086Z,17.67
2022-10-18T19:29:25.751Z,17.67
2022-10-18T19:31:56.602Z,17.66
2022-10-18T19:34:26.619Z,17.66
2022-10-18T19:36:54.894Z,17.65
2022-10-18T19:39:24.297Z,17.64
2022-10-18T19:41:58.102Z,17.62
2022-10-18T19:44:30.068Z,17.61
2022-10-18T19:46:58.957Z,17.59
2022-10-18T19:49:28.842Z,17.56
2022-10-18T19:51:57.556Z,17.54
2022-10-18T19:54:26.857Z,17.51
2022-10-18T19:56:54.927Z,17.48
2022-10-18T19:59:24.232Z,17.45
2022-10-18T20:01:52.401Z,17.42
2022-10-18T20:04:20.577Z,17.39
2022-10-18T20:06:50.161Z,17.36
2022-10-18T20:09:20.653Z,17.32
2022-10-18T20:11:49.000Z,17.30
2022-10-18T20:14:17.063Z,17.26
2022-10-18T20:16:45.133Z,17.22
2022-10-18T20:19:13.203Z,17.19
2022-10-18T20:21:41.272Z,17.15
2022-10-18T20:24:10.781Z,17.11
2022-10-18T20:26:39.709Z,17.07
2022-10-18T20:29:08.320Z,17.03
2022-10-18T20:31:39.140Z,17.00
2022-10-18T20:34:10.644Z,16.97
2022-10-18T20:36:39.226Z,16.94
2022-10-18T20:39:07.998Z,16.92
2022-10-18T20:41:38.747Z,16.89
2022-10-18T20:44:11.836Z,16.86
2022-10-18T20:46:40.415Z,16.84
2022-10-18T20:49:10.744Z,16.82
2022-10-18T20:51:38.818Z,16.79
2022-10-18T20:54:09.438Z,16.77
2022-10-18T20:56:38.969Z,16.75
2022-10-18T20:59:10.023Z,16.74
2022-10-18T21:01:39.550Z,16.72
2022-10-18T21:04:10.233Z,16.69
2022-10-18T21:06:41.957Z,16.86
2022-10-18T21:09:12.928Z,18.93
2022-10-18T21:11:45.101Z,21.00
2022-10-18T21:14:15.871Z,21.82
2022-10-18T21:16:44.644Z,20.85
2022-10-18T21:19:14.328Z,19.77
2022-10-18T21:21:44.654Z,18.96
2022-10-18T21:24:14.050Z,18.43
2022-10-18T21:26:42.434Z,18.00
2022-10-18T21:29:11.785Z,18.22
2022-10-18T21:31:41.648Z,20.35
2022-10-18T21:34:15.943Z,21.53
2022-10-18T21:36:46.187Z,20.65
2022-10-18T21:39:18.006Z,19.58
2022-10-18T21:41:46.598Z,18.80
2022-10-18T21:44:15.009Z,18.24
2022-10-18T21:46:43.420Z,17.84
2022-10-18T21:49:11.447Z,18.13
2022-10-18T21:51:40.018Z,20.26
2022-10-18T21:54:12.006Z,21.50
2022-10-18T21:56:40.486Z,20.67
2022-10-18T21:59:11.117Z,19.61
2022-10-18T22:01:40.216Z,18.82
2022-10-18T22:04:19.363Z,18.23
2022-10-18T22:06:47.416Z,18.53
2022-10-18T22:09:15.795Z,20.66
2022-10-18T22:11:47.963Z,21.70
2022-10-18T22:14:16.033Z,20.76
2022-10-18T22:16:44.001Z,19.71
2022-10-18T22:19:12.278Z,18.96
2022-10-18T22:21:40.349Z,19.43
2022-10-18T22:24:09.551Z,21.40
2022-10-18T22:26:40.178Z,22.09
2022-10-18T22:29:14.702Z,20.95
2022-10-18T22:32:02.027Z,19.72
2022-10-18T22:34:30.094Z,18.75
2022-10-18T22:36:58.166Z,18.77
2022-10-18T22:39:26.136Z,20.65
2022-10-18T22:41:56.563Z,21.66
2022-10-18T22:44:27.064Z,20.67
2022-10-18T22:46:55.061Z,19.47
2022-10-18T22:49:23.135Z,18.64
2022-10-18T22:51:51.202Z,19.39
2022-10-18T22:54:19.273Z,21.32
2022-10-18T22:56:47.345Z,21.49
2022-10-18T22:59:15.422Z,20.31
2022-10-18T23:01:43.386Z,19.29
2022-10-18T23:04:11.457Z,18.61
2022-10-18T23:06:40.027Z,19.74
2022-10-18T23:09:10.882Z,21.69
2022-10-18T23:11:39.059Z,21.36
2022-10-18T23:14:07.328Z,20.11
2022-10-18T23:16:35.785Z,19.11
2022-10-18T23:19:04.400Z,18.99
2022-10-18T23:21:33.998Z,20.91
2022-10-18T23:24:01.969Z,21.88
2022-10-18T23:26:29.936Z,20.94
2022-10-18T23:28:58.061Z,19.86
2022-10-18T23:31:33.131Z,19.08
2022-10-18T23:34:03.777Z,19.63
2022-10-18T23:36:33.877Z,21.71
2022-10-18T23:39:03.594Z,21.74
2022-10-18T23:41:31.574Z,20.53
2022-10-18T23:43:59.747Z,19.54
2022-10-18T23:46:28.536Z,18.85
2022-10-18T23:48:56.505Z,19.66
2022-10-18T23:51:24.474Z,21.61
2022-10-18T23:53:52.545Z,21.54
2022-10-18T23:56:20.617Z,20.33
2022-10-18T23:58:48.586Z,19.30
